首页
METAR-TAF:

METAR-TAF

机场 :

都柏林机场

都柏林, 爱尔兰

纬度: 53-26N, 经度: 006-15W, 海拔: 68米

当前天气观测

该预报发布于17分钟前的17:00 UTC
风速8节,风向西
温度 4°C
湿度 93%
气压 1000 hPa
能见度10公里或以上
少量云层高于2000英尺
多云层高于3300英尺
多云层高于4000英尺

METAR: EIDW 161700Z 27008KT 9999 FEW020 BKN033 BKN040 04/03 Q1000 NOSIG

时间: 17:17 (17:17 UTC)

预报

该预报发布于6小时和17分钟前的11:00 UTC
预报有效从16日的 12点(UTC)到 17日的 12点(UTC)
风速8节,风向西转西南
能见度10公里或以上
散云层高于1200英尺
多云层高于3000英尺
成为
从 16日的 12点(UTC)到 16日的 14点(UTC)
风速14节,风向西转西南
短暂存在
从 16日的 14点(UTC)到 16日的 19点(UTC)
散云层高于1800英尺, 积雨云.
小阵雨
几率 40% :
短暂存在
从 16日的 14点(UTC)到 16日的 19点(UTC)
能見度: 4000
多云层高于800英尺
阵雨
成为
从 16日的 16点(UTC)到 16日的 18点(UTC)
风速10节,风向北转西北
成为
从 16日的 21点(UTC)到 16日的 24点(UTC)
风速10节,风向西转西北
几率 30% :
短暂存在
从 17日的 00点(UTC)到 17日的 03点(UTC)
散云层高于1800英尺, 积雨云.
小阵雨
成为
从 17日的 01点(UTC)到 17日的 03点(UTC)
风速12节,风向北转西北
成为
从 17日的 03点(UTC)到 17日的 06点(UTC)
风速11节,风向西转西北

TAF: EIDW 161100Z 1612/1712 24008KT 9999 SCT012 BKN030 BECMG 1612/1614 24014KT TEMPO 1614/1619 -SHRA SCT018CB PROB40 TEMPO 1614/1619 4000 SHRA BKN008 BECMG 1616/1618 34010KT BECMG 1621/1624 29010KT PROB30 TEMPO 1700/1703 -SHRA SCT018CB BECMG 1701/1703 34012KT BECMG 1703/1706 30011KT

超过4000个机场的气象观测和天气预报(METAR&TAF报告)。

可查询的气象台以黄色和红色小点在地图上表示。

将鼠标移到小点上方,可查看气象台名称。

然后点击查看天气观测和预报。

如需切换地图:点击带黑十字的绿色按钮放大地图;点击带横线的绿色按钮缩小地图;或者点击绿色箭头查看邻近地区的地图。


METAR-TAF: